Time;durP1;ratioP1;P1;durP2;ratioP2;P2;SDS_P1;SDS_P2;PMS_P1;PMS_P2;Temp;Humidity;BMP_temperature;BMP_pressure;BME280_temperature;BME280_humidity;BME280_pressure;Samples;Min_cycle;Max_cycle;Signal;HPM_P1;HPM_P2
2022/12/02 00:01:41;;;;;;;68.67;23.97;;;0.60;99.90;;;;;;4122067;28;20482;-75
2022/12/02 00:03:44;;;;;;;63.43;22.43;;;0.60;99.90;;;;;;4119152;28;21064;-75
2022/12/02 00:05:49;;;;;;;65.63;22.90;;;0.60;99.90;;;;;;4103643;28;20452;-76
2022/12/02 00:07:51;;;;;;;64.97;22.93;;;0.60;99.90;;;;;;4106291;28;20446;-74
2022/12/02 00:09:53;;;;;;;67.37;23.30;;;0.70;99.90;;;;;;4118465;28;20546;-75
2022/12/02 00:11:55;;;;;;;62.80;23.23;;;0.60;99.90;;;;;;4103559;28;20502;-74
2022/12/02 00:14:16;;;;;;;68.13;23.20;;;0.60;99.90;;;;;;4117568;28;21045;-75
2022/12/02 00:16:21;;;;;;;67.87;23.57;;;0.70;99.90;;;;;;4116823;28;20470;-75
2022/12/02 00:18:25;;;;;;;63.57;22.77;;;0.80;99.90;;;;;;4112153;28;20497;-74
2022/12/02 00:20:26;;;;;;;63.63;22.07;;;0.70;99.90;;;;;;4118981;28;20473;-73
2022/12/02 00:22:27;;;;;;;62.63;22.90;;;0.60;99.90;;;;;;4119674;28;20498;-74
2022/12/02 00:24:29;;;;;;;69.97;23.40;;;0.60;99.90;;;;;;4122105;28;20229;-76
2022/12/02 00:26:31;;;;;;;61.07;21.10;;;0.60;99.90;;;;;;4118948;28;20557;-74
2022/12/02 00:28:33;;;;;;;66.37;23.80;;;0.60;99.90;;;;;;4120206;28;20993;-74
2022/12/02 00:30:35;;;;;;;62.97;22.13;;;0.60;99.90;;;;;;4119814;28;20556;-74
2022/12/02 00:32:37;;;;;;;64.33;22.07;;;0.60;99.90;;;;;;4118399;28;20512;-74
2022/12/02 00:34:40;;;;;;;60.03;21.70;;;0.60;99.90;;;;;;4116771;28;20473;-75
2022/12/02 00:36:42;;;;;;;60.43;21.47;;;0.60;99.90;;;;;;4118059;28;20520;-75
2022/12/02 00:38:44;;;;;;;60.47;21.67;;;0.60;99.90;;;;;;4103589;28;20489;-74
2022/12/02 00:40:46;;;;;;;64.63;22.97;;;0.60;99.90;;;;;;4119549;28;20494;-76
2022/12/02 00:42:48;;;;;;;58.60;20.83;;;0.60;99.90;;;;;;4118862;28;20441;-74
2022/12/02 00:47:08;;;;;;;57.47;20.53;;;0.60;99.90;;;;;;4120679;28;20546;-75
2022/12/02 00:49:12;;;;;;;61.30;22.07;;;0.60;99.90;;;;;;4120964;28;20460;-74
2022/12/02 00:51:15;;;;;;;65.73;21.53;;;0.60;99.90;;;;;;4102603;28;20259;-75
2022/12/02 00:53:17;;;;;;;62.17;22.63;;;0.60;99.90;;;;;;4117421;28;21185;-75
2022/12/02 00:55:19;;;;;;;65.70;22.57;;;0.60;99.90;;;;;;4120066;28;20993;-74
2022/12/02 00:57:21;;;;;;;61.63;22.10;;;0.60;99.90;;;;;;4118747;28;20454;-75
2022/12/02 00:59:23;;;;;;;57.13;21.87;;;0.40;99.90;;;;;;4122777;28;20928;-74
2022/12/02 01:01:26;;;;;;;54.67;21.23;;;0.60;99.90;;;;;;4119818;28;20910;-75
2022/12/02 01:03:28;;;;;;;65.37;22.43;;;0.60;99.90;;;;;;4118714;28;20478;-76
2022/12/02 01:05:30;;;;;;;58.13;23.70;;;0.60;99.90;;;;;;4121882;28;20525;-74
2022/12/02 01:07:34;;;;;;;60.23;22.07;;;0.60;99.90;;;;;;4119721;28;20562;-73
2022/12/02 01:09:36;;;;;;;59.07;21.90;;;0.60;99.90;;;;;;4115957;28;20455;-75
2022/12/02 01:11:38;;;;;;;61.60;22.67;;;0.60;99.90;;;;;;4100827;28;20460;-75
2022/12/02 01:13:39;;;;;;;64.83;22.27;;;0.60;99.90;;;;;;4120493;28;20483;-75
2022/12/02 01:15:41;;;;;;;61.53;22.57;;;0.60;99.90;;;;;;4119712;28;20464;-75
2022/12/02 01:17:43;;;;;;;61.13;22.70;;;0.60;99.90;;;;;;4121199;28;20461;-74
2022/12/02 01:19:45;;;;;;;59.63;21.97;;;0.60;99.90;;;;;;4125579;28;20509;-74
2022/12/02 01:21:47;;;;;;;62.30;20.90;;;0.60;99.90;;;;;;4120530;28;20465;-73
2022/12/02 01:23:51;;;;;;;56.70;20.83;;;0.60;99.90;;;;;;4117143;28;20495;-74
2022/12/02 01:25:53;;;;;;;58.57;20.53;;;0.60;99.90;;;;;;4119209;28;20463;-74
2022/12/02 01:27:55;;;;;;;51.40;20.13;;;0.60;99.90;;;;;;4120733;28;20465;-75
2022/12/02 01:29:57;;;;;;;54.33;20.17;;;0.60;99.90;;;;;;4104630;28;20507;-73
2022/12/02 01:31:59;;;;;;;54.67;20.50;;;0.60;99.90;;;;;;4118601;28;20453;-73
2022/12/02 01:34:03;;;;;;;52.93;20.27;;;0.60;99.90;;;;;;4121855;28;20492;-74
2022/12/02 01:36:06;;;;;;;54.87;19.43;;;0.60;99.90;;;;;;4119218;28;20478;-74
2022/12/02 01:38:07;;;;;;;59.63;21.17;;;0.60;99.90;;;;;;4117889;28;20947;-75
2022/12/02 01:40:12;;;;;;;52.60;18.83;;;0.60;99.90;;;;;;4121374;28;20578;-74
2022/12/02 01:42:14;;;;;;;55.77;20.47;;;0.60;99.90;;;;;;4118738;28;20471;-76
2022/12/02 01:44:16;;;;;;;57.13;21.00;;;0.60;99.90;;;;;;4121472;28;20956;-74
2022/12/02 01:46:19;;;;;;;53.77;20.80;;;0.60;99.90;;;;;;4121349;28;20563;-73
2022/12/02 01:48:21;;;;;;;47.60;18.87;;;0.70;99.90;;;;;;4122403;28;20546;-75
2022/12/02 01:50:23;;;;;;;54.40;18.80;;;0.60;99.90;;;;;;4123886;28;20483;-75
2022/12/02 01:52:25;;;;;;;52.23;20.23;;;0.60;99.90;;;;;;4121874;28;20466;-75
2022/12/02 01:54:28;;;;;;;53.87;19.97;;;0.60;99.90;;;;;;4119173;28;20486;-74
2022/12/02 01:56:31;;;;;;;52.30;20.03;;;0.60;99.90;;;;;;4118049;28;21014;-73
2022/12/02 01:58:33;;;;;;;51.60;19.50;;;0.60;99.90;;;;;;4120869;28;20954;-74
2022/12/02 02:00:35;;;;;;;53.33;19.53;;;0.60;99.90;;;;;;4120312;28;20478;-76
2022/12/02 02:02:38;;;;;;;50.57;19.73;;;0.60;99.90;;;;;;4117819;28;20486;-74
2022/12/02 02:04:40;;;;;;;55.80;20.30;;;0.60;99.90;;;;;;4119569;28;20589;-74
2022/12/02 02:06:45;;;;;;;53.77;19.53;;;0.60;99.90;;;;;;4118487;28;20495;-76
2022/12/02 02:08:47;;;;;;;48.80;18.83;;;0.60;99.90;;;;;;4120714;28;20497;-74
2022/12/02 02:10:49;;;;;;;57.03;19.77;;;0.70;99.90;;;;;;4123240;28;20554;-74
2022/12/02 02:12:56;;;;;;;54.33;19.73;;;0.60;99.90;;;;;;4119208;28;20545;-75
2022/12/02 02:14:58;;;;;;;54.57;19.87;;;0.60;99.90;;;;;;4118110;28;20485;-74
2022/12/02 02:17:00;;;;;;;53.53;19.53;;;0.60;99.90;;;;;;4121967;28;20837;-73
2022/12/02 02:19:03;;;;;;;54.80;19.03;;;0.60;99.90;;;;;;4122698;28;20542;-72
2022/12/02 02:21:07;;;;;;;50.60;20.10;;;0.60;99.90;;;;;;4130316;28;20514;-73
2022/12/02 02:23:21;;;;;;;54.70;20.20;;;0.60;99.90;;;;;;4116809;28;20467;-73
2022/12/02 02:25:23;;;;;;;57.43;19.90;;;0.60;99.90;;;;;;4124321;28;20911;-72
2022/12/02 02:27:25;;;;;;;56.30;21.40;;;0.60;99.90;;;;;;4132684;28;20897;-72
2022/12/02 02:29:28;;;;;;;53.83;20.73;;;0.60;99.90;;;;;;4128353;28;20982;-72
2022/12/02 02:31:30;;;;;;;53.47;19.63;;;0.60;99.90;;;;;;4122526;28;20472;-72
2022/12/02 02:33:34;;;;;;;53.33;18.77;;;0.60;99.90;;;;;;4121989;28;20494;-74
2022/12/02 02:35:38;;;;;;;51.37;18.70;;;0.60;99.90;;;;;;4119203;28;20468;-75
2022/12/02 02:37:40;;;;;;;58.33;20.00;;;0.60;99.90;;;;;;4122394;28;20623;-74
2022/12/02 02:39:43;;;;;;;53.30;19.37;;;0.60;99.90;;;;;;4123415;28;20498;-74
2022/12/02 02:41:46;;;;;;;53.27;19.50;;;0.60;99.90;;;;;;4123106;28;20563;-74
2022/12/02 02:43:48;;;;;;;53.23;19.20;;;0.60;99.90;;;;;;4121984;28;20549;-74
2022/12/02 02:45:50;;;;;;;52.63;19.50;;;0.60;99.90;;;;;;4121016;28;20530;-75
2022/12/02 02:47:54;;;;;;;54.17;19.97;;;0.60;99.90;;;;;;4120737;28;20557;-74
2022/12/02 02:49:56;;;;;;;53.83;20.80;;;0.60;99.90;;;;;;4120172;28;20490;-74
2022/12/02 02:51:58;;;;;;;52.87;19.33;;;0.60;99.90;;;;;;4120838;28;20457;-75
2022/12/02 02:54:00;;;;;;;55.93;20.43;;;0.60;99.90;;;;;;4111550;28;20502;-74
2022/12/02 02:56:04;;;;;;;51.50;18.90;;;0.60;99.90;;;;;;4119651;28;20459;-75
2022/12/02 02:58:10;;;;;;;51.53;19.00;;;0.60;99.90;;;;;;4119881;28;20486;-74
2022/12/02 03:00:13;;;;;;;56.20;20.37;;;0.60;99.90;;;;;;4119869;28;20893;-74
2022/12/02 03:02:15;;;;;;;57.57;19.43;;;0.60;99.90;;;;;;4122367;28;20950;-74
2022/12/02 03:04:19;;;;;;;53.53;18.17;;;0.60;99.90;;;;;;4123973;28;20903;-74
2022/12/02 03:06:22;;;;;;;53.37;18.97;;;0.60;99.90;;;;;;4118838;28;20454;-74
2022/12/02 03:08:25;;;;;;;55.70;18.73;;;0.60;99.90;;;;;;4126433;28;20905;-74
2022/12/02 03:10:27;;;;;;;47.17;17.60;;;0.60;99.90;;;;;;4126305;28;20466;-72
2022/12/02 03:12:30;;;;;;;50.47;19.20;;;0.60;99.90;;;;;;4125096;28;20548;-72
2022/12/02 03:14:32;;;;;;;52.17;18.60;;;0.60;99.90;;;;;;4105366;28;20487;-74
2022/12/02 03:16:34;;;;;;;48.07;19.30;;;0.60;99.90;;;;;;4122192;28;20461;-73
2022/12/02 03:18:37;;;;;;;48.13;18.53;;;0.70;99.90;;;;;;4113010;28;20488;-74
2022/12/02 03:20:39;;;;;;;51.57;19.90;;;0.70;99.90;;;;;;4102846;28;20463;-73
2022/12/02 03:22:41;;;;;;;53.30;20.10;;;0.60;99.90;;;;;;4126918;28;20494;-72
2022/12/02 03:24:44;;;;;;;47.77;18.33;;;0.60;99.90;;;;;;4125073;28;20581;-73
2022/12/02 03:26:46;;;;;;;54.47;19.70;;;0.60;99.90;;;;;;4118586;28;20449;-72
2022/12/02 03:28:50;;;;;;;53.00;19.53;;;0.60;99.90;;;;;;4120352;28;20489;-73
2022/12/02 03:30:52;;;;;;;55.57;19.53;;;0.60;99.90;;;;;;4113692;28;20526;-72
2022/12/02 03:32:54;;;;;;;54.57;19.37;;;0.60;99.90;;;;;;4121707;28;20525;-72
2022/12/02 03:34:56;;;;;;;55.50;19.90;;;0.60;99.90;;;;;;4118787;28;20491;-72
2022/12/02 03:36:59;;;;;;;48.53;19.07;;;0.60;99.90;;;;;;4121920;28;20547;-72
2022/12/02 03:39:01;;;;;;;51.73;19.03;;;0.60;99.90;;;;;;4130519;28;20456;-72
2022/12/02 03:41:05;;;;;;;52.60;20.13;;;0.60;99.90;;;;;;4127458;28;20542;-73
2022/12/02 03:43:07;;;;;;;47.40;17.73;;;0.60;99.90;;;;;;4124304;28;20489;-73
2022/12/02 03:45:11;;;;;;;53.53;19.30;;;0.60;99.90;;;;;;4107370;28;21069;-74
2022/12/02 03:47:14;;;;;;;51.97;19.00;;;0.60;99.90;;;;;;4126777;28;20466;-72
2022/12/02 03:49:16;;;;;;;57.87;20.37;;;0.60;99.90;;;;;;4126096;28;20457;-73
2022/12/02 03:51:18;;;;;;;53.73;19.17;;;0.60;99.90;;;;;;4140516;28;20504;-72
2022/12/02 03:53:21;;;;;;;52.10;19.40;;;0.60;99.90;;;;;;4126565;28;21998;-73
2022/12/02 03:55:23;;;;;;;52.97;19.03;;;0.60;99.90;;;;;;4105569;28;20440;-72
2022/12/02 03:57:26;;;;;;;47.00;18.17;;;0.60;99.90;;;;;;4122702;28;20521;-72
2022/12/02 03:59:28;;;;;;;52.53;19.30;;;0.60;99.90;;;;;;4120400;28;20459;-72
2022/12/02 04:01:31;;;;;;;53.33;20.07;;;0.60;99.90;;;;;;4126339;28;20453;-72
2022/12/02 04:03:33;;;;;;;50.97;19.13;;;0.60;99.90;;;;;;4119539;28;20503;-72
2022/12/02 04:05:35;;;;;;;50.40;19.50;;;0.60;99.90;;;;;;4122483;28;20513;-73
2022/12/02 04:07:37;;;;;;;59.93;20.63;;;0.60;99.90;;;;;;4106977;28;20558;-73
2022/12/02 04:09:39;;;;;;;58.13;21.97;;;0.60;99.90;;;;;;4102652;28;20930;-73
2022/12/02 04:11:41;;;;;;;51.27;19.57;;;0.60;99.90;;;;;;4107230;28;20540;-74
2022/12/02 04:13:43;;;;;;;56.87;20.70;;;0.60;99.90;;;;;;4123966;28;20840;-75
2022/12/02 04:15:45;;;;;;;52.63;20.23;;;0.60;99.90;;;;;;4105306;28;20464;-75
2022/12/02 04:17:48;;;;;;;56.27;20.73;;;0.70;99.90;;;;;;4121087;28;20518;-75
2022/12/02 04:19:50;;;;;;;52.20;20.13;;;0.80;99.90;;;;;;4117480;28;20517;-76
2022/12/02 04:21:52;;;;;;;54.53;20.60;;;0.60;99.90;;;;;;4121359;28;20463;-73
2022/12/02 04:23:55;;;;;;;51.27;20.13;;;0.60;99.90;;;;;;4122972;28;20492;-73
2022/12/02 04:25:59;;;;;;;54.67;19.80;;;0.60;99.90;;;;;;4119882;28;20479;-75
2022/12/02 04:28:01;;;;;;;55.43;20.47;;;0.60;99.90;;;;;;4105754;28;20508;-76
2022/12/02 04:30:04;;;;;;;48.20;18.63;;;0.60;99.90;;;;;;4120248;28;20532;-75
2022/12/02 04:32:06;;;;;;;52.57;20.17;;;0.60;99.90;;;;;;4128864;28;20458;-74
2022/12/02 04:34:09;;;;;;;55.23;20.20;;;0.60;99.90;;;;;;4119214;28;20563;-79
2022/12/02 04:36:11;;;;;;;54.13;19.60;;;0.60;99.90;;;;;;4122379;28;20501;-73
2022/12/02 04:38:13;;;;;;;52.90;20.40;;;0.60;99.90;;;;;;4119674;28;20822;-73
2022/12/02 04:40:15;;;;;;;53.00;19.77;;;0.70;99.90;;;;;;4124250;28;20454;-74
2022/12/02 04:42:17;;;;;;;53.37;19.40;;;0.60;99.90;;;;;;4127355;28;20933;-73
2022/12/02 04:44:19;;;;;;;60.53;21.97;;;0.60;99.90;;;;;;4127247;28;20481;-75
2022/12/02 04:46:21;;;;;;;50.67;19.87;;;0.60;99.90;;;;;;4126241;28;20537;-74
2022/12/02 04:48:23;;;;;;;53.23;19.20;;;0.60;99.90;;;;;;4125497;28;20563;-73
2022/12/02 04:50:26;;;;;;;49.17;18.57;;;0.60;99.90;;;;;;4114094;28;20878;-74
2022/12/02 04:52:28;;;;;;;54.50;20.83;;;0.60;99.90;;;;;;4126745;28;20852;-75
2022/12/02 04:54:30;;;;;;;53.40;20.83;;;0.70;99.90;;;;;;4103743;28;20492;-74
2022/12/02 04:56:32;;;;;;;56.93;20.60;;;0.60;99.90;;;;;;4123599;28;20455;-75
2022/12/02 04:58:34;;;;;;;49.80;18.60;;;0.60;99.90;;;;;;4117448;28;20454;-73
2022/12/02 05:00:36;;;;;;;48.30;19.60;;;0.60;99.90;;;;;;4122728;28;20489;-73
2022/12/02 05:02:38;;;;;;;53.37;21.33;;;0.60;99.90;;;;;;4121004;28;20949;-73
2022/12/02 05:04:40;;;;;;;52.97;20.30;;;0.60;99.90;;;;;;4124750;28;20469;-73
2022/12/02 05:06:43;;;;;;;54.37;20.90;;;0.60;99.90;;;;;;4125074;28;20498;-73
2022/12/02 05:08:45;;;;;;;51.17;19.83;;;0.70;99.90;;;;;;4121167;28;20891;-74
2022/12/02 05:10:47;;;;;;;52.60;19.50;;;0.60;99.90;;;;;;4124562;28;20513;-74
2022/12/02 05:12:49;;;;;;;53.37;20.73;;;0.60;99.90;;;;;;4122690;28;20469;-74
2022/12/02 05:14:51;;;;;;;53.03;20.87;;;0.60;99.90;;;;;;4124770;28;20553;-78
2022/12/02 05:16:53;;;;;;;51.13;19.93;;;0.60;99.90;;;;;;4121977;28;20490;-74
2022/12/02 05:18:55;;;;;;;49.33;19.90;;;0.60;99.90;;;;;;4120085;28;20925;-75
2022/12/02 05:20:57;;;;;;;49.87;20.07;;;0.60;99.90;;;;;;4121623;28;20461;-77
2022/12/02 05:23:00;;;;;;;48.37;19.27;;;0.60;99.90;;;;;;4124085;28;21131;-73
2022/12/02 05:25:02;;;;;;;52.20;19.30;;;0.60;99.90;;;;;;4124903;28;20455;-74
2022/12/02 05:27:04;;;;;;;55.50;19.83;;;0.60;99.90;;;;;;4117374;28;20459;-74
2022/12/02 05:29:07;;;;;;;55.30;21.37;;;0.60;99.90;;;;;;4118971;28;20461;-74
2022/12/02 05:31:08;;;;;;;49.93;18.93;;;0.60;99.90;;;;;;4132219;28;20467;-74
2022/12/02 05:33:10;;;;;;;49.53;19.77;;;0.60;99.90;;;;;;4120597;28;21014;-74
2022/12/02 05:35:15;;;;;;;50.27;19.37;;;0.60;99.90;;;;;;4123990;28;20457;-74
2022/12/02 05:37:17;;;;;;;49.13;19.87;;;0.60;99.90;;;;;;4123009;28;20548;-73
2022/12/02 05:39:21;;;;;;;52.23;20.33;;;0.60;99.90;;;;;;4123739;28;20454;-73
2022/12/02 05:41:22;;;;;;;48.63;18.63;;;0.60;99.90;;;;;;4123006;28;20450;-74
2022/12/02 05:43:26;;;;;;;53.90;20.40;;;0.70;99.90;;;;;;4113380;28;20480;-76
2022/12/02 05:45:28;;;;;;;50.23;20.00;;;0.70;99.90;;;;;;4127534;28;20517;-74
2022/12/02 05:47:30;;;;;;;53.00;20.47;;;0.60;99.90;;;;;;4129207;28;20946;-74
2022/12/02 05:49:33;;;;;;;51.90;20.00;;;0.60;99.90;;;;;;4125569;28;20452;-74
2022/12/02 05:51:35;;;;;;;51.97;20.13;;;0.60;99.90;;;;;;4120793;28;20590;-74
2022/12/02 05:53:40;;;;;;;57.00;21.70;;;0.60;99.90;;;;;;4124458;28;20825;-74
2022/12/02 05:55:43;;;;;;;51.37;19.43;;;0.60;99.90;;;;;;4132709;28;20557;-74
2022/12/02 05:57:47;;;;;;;50.70;19.80;;;0.60;99.90;;;;;;4117959;28;20448;-74
2022/12/02 05:59:49;;;;;;;51.87;20.90;;;0.70;99.90;;;;;;4109195;28;20654;-74
2022/12/02 06:01:53;;;;;;;52.60;19.93;;;0.60;99.90;;;;;;4127060;28;20454;-74
2022/12/02 06:03:55;;;;;;;56.63;21.53;;;0.60;99.90;;;;;;4121960;28;20513;-76
2022/12/02 06:05:57;;;;;;;59.63;22.07;;;0.60;99.90;;;;;;4126393;28;20536;-76
2022/12/02 06:08:08;;;;;;;51.07;20.00;;;0.60;99.90;;;;;;4114041;28;20509;-76
2022/12/02 06:10:21;;;;;;;55.03;21.23;;;0.60;99.90;;;;;;4121743;28;20458;-75
2022/12/02 06:12:24;;;;;;;56.57;21.37;;;0.60;99.90;;;;;;4118912;28;20448;-74
2022/12/02 06:14:34;;;;;;;52.07;20.87;;;0.60;99.90;;;;;;4124834;28;20492;-75
2022/12/02 06:16:37;;;;;;;54.30;21.53;;;0.60;99.90;;;;;;4108168;28;20521;-75
2022/12/02 06:18:39;;;;;;;57.43;20.60;;;0.60;99.90;;;;;;4124511;28;20461;-74
2022/12/02 06:20:41;;;;;;;57.33;21.90;;;0.60;99.90;;;;;;4124225;28;20450;-76
2022/12/02 06:22:43;;;;;;;60.20;21.57;;;0.60;99.90;;;;;;4122831;28;20544;-75
2022/12/02 06:24:45;;;;;;;61.37;22.47;;;0.60;99.90;;;;;;4124977;28;20478;-76
2022/12/02 06:26:51;;;;;;;55.13;21.13;;;0.60;99.90;;;;;;4121489;28;20477;-74
2022/12/02 06:28:59;;;;;;;59.50;21.40;;;0.60;99.90;;;;;;4122025;28;20486;-74
2022/12/02 06:31:09;;;;;;;52.23;19.60;;;0.60;99.90;;;;;;4120463;28;20794;-74
2022/12/02 06:33:21;;;;;;;55.73;20.90;;;0.60;99.90;;;;;;4105349;28;20459;-74
2022/12/02 06:35:26;;;;;;;51.50;20.37;;;0.60;99.90;;;;;;4119117;28;21186;-78
2022/12/02 06:37:30;;;;;;;54.33;20.73;;;0.60;99.90;;;;;;4112951;28;21018;-72
2022/12/02 06:39:33;;;;;;;55.70;20.30;;;0.60;99.90;;;;;;4106729;28;20485;-74
2022/12/02 06:41:37;;;;;;;59.07;20.93;;;0.70;99.90;;;;;;4120475;28;21030;-75
2022/12/02 06:43:39;;;;;;;60.97;21.43;;;0.70;99.90;;;;;;4120920;28;20520;-75
2022/12/02 06:45:45;;;;;;;59.73;20.67;;;0.60;99.90;;;;;;4122679;28;20499;-75
2022/12/02 06:47:52;;;;;;;57.90;22.37;;;0.70;99.90;;;;;;4114411;28;20463;-74
2022/12/02 06:49:54;;;;;;;56.90;20.83;;;0.70;99.90;;;;;;4125583;28;20459;-77
2022/12/02 06:51:58;;;;;;;58.90;22.90;;;0.70;99.90;;;;;;4102349;28;20467;-74
2022/12/02 06:54:03;;;;;;;61.33;22.23;;;0.70;99.90;;;;;;4123201;28;20527;-77
2022/12/02 06:56:11;;;;;;;64.67;22.70;;;0.70;99.90;;;;;;4119954;28;20473;-73
2022/12/02 06:58:27;;;;;;;61.33;22.77;;;0.70;99.90;;;;;;4119592;28;20453;-75
2022/12/02 07:00:31;;;;;;;57.33;21.80;;;0.60;99.90;;;;;;4121563;28;20566;-75
2022/12/02 07:02:34;;;;;;;59.53;22.47;;;0.60;99.90;;;;;;4122278;28;20975;-75
2022/12/02 07:04:43;;;;;;;55.77;20.10;;;0.70;99.90;;;;;;4102360;28;20592;-78
2022/12/02 07:06:50;;;;;;;53.73;19.67;;;0.90;99.90;;;;;;4110229;28;20481;-73
2022/12/02 07:08:55;;;;;;;53.93;20.40;;;0.60;99.90;;;;;;4122685;28;20451;-75
2022/12/02 07:10:57;;;;;;;60.17;22.07;;;0.60;99.90;;;;;;4124841;28;21030;-73
2022/12/02 07:13:02;;;;;;;56.40;21.40;;;0.70;99.90;;;;;;4124284;28;20478;-74
2022/12/02 07:15:22;;;;;;;57.63;20.77;;;0.70;99.90;;;;;;4121106;28;20454;-76
2022/12/02 07:17:29;;;;;;;54.13;20.27;;;0.70;99.90;;;;;;4121249;28;20474;-76
2022/12/02 07:19:38;;;;;;;65.37;23.23;;;0.70;99.90;;;;;;4121408;28;20554;-74
2022/12/02 07:21:40;;;;;;;53.13;21.00;;;0.70;99.90;;;;;;4121437;28;20966;-76
2022/12/02 07:23:42;;;;;;;54.57;19.83;;;0.40;99.90;;;;;;4113628;28;20482;-75
2022/12/02 07:25:46;;;;;;;55.60;20.60;;;0.70;99.90;;;;;;4126128;28;20450;-75
2022/12/02 07:27:50;;;;;;;54.77;21.57;;;0.70;99.90;;;;;;4119032;28;20446;-74
2022/12/02 07:29:53;;;;;;;61.37;21.30;;;0.70;99.90;;;;;;4122619;28;20485;-74
2022/12/02 07:31:55;;;;;;;54.30;20.37;;;0.70;99.90;;;;;;4124292;28;20880;-74
2022/12/02 07:33:57;;;;;;;58.77;21.23;;;0.70;99.90;;;;;;4111947;28;20521;-74
2022/12/02 07:36:01;;;;;;;55.60;21.07;;;0.70;99.90;;;;;;4105174;28;20466;-76
2022/12/02 07:38:03;;;;;;;62.40;21.73;;;0.70;99.90;;;;;;4122255;28;21158;-74
2022/12/02 07:40:06;;;;;;;61.07;22.10;;;0.70;99.90;;;;;;4120590;28;20490;-75
2022/12/02 07:42:08;;;;;;;63.77;23.40;;;0.70;99.90;;;;;;4118935;28;20473;-74
2022/12/02 07:44:10;;;;;;;58.57;21.90;;;0.70;99.90;;;;;;4122131;28;20840;-74
2022/12/02 07:46:12;;;;;;;61.73;23.83;;;0.70;99.90;;;;;;4122803;28;20490;-74
2022/12/02 07:48:14;;;;;;;61.27;21.20;;;0.80;99.90;;;;;;4117060;28;20451;-76
2022/12/02 07:50:17;;;;;;;63.03;22.87;;;0.70;99.90;;;;;;4119408;28;20982;-74
2022/12/02 07:52:20;;;;;;;62.10;22.47;;;0.70;99.90;;;;;;4119904;28;20853;-75
2022/12/02 07:54:22;;;;;;;55.07;21.03;;;0.80;99.90;;;;;;4120212;28;20496;-74
2022/12/02 07:56:24;;;;;;;64.80;22.97;;;0.80;99.90;;;;;;4117648;28;20453;-75
2022/12/02 07:58:26;;;;;;;60.57;21.57;;;0.80;99.90;;;;;;4117150;28;20523;-75
2022/12/02 08:00:28;;;;;;;59.87;21.20;;;0.80;99.90;;;;;;4120071;28;20468;-75
2022/12/02 08:02:30;;;;;;;58.13;21.73;;;0.80;99.90;;;;;;4115174;28;20475;-76
2022/12/02 08:04:32;;;;;;;66.13;22.60;;;0.90;99.90;;;;;;4108383;28;21142;-74
2022/12/02 08:06:34;;;;;;;61.90;22.33;;;0.90;99.90;;;;;;4108294;28;20499;-75
2022/12/02 08:08:38;;;;;;;62.60;22.57;;;0.90;99.90;;;;;;4123528;28;20478;-74
2022/12/02 08:10:40;;;;;;;57.90;21.93;;;0.90;99.90;;;;;;4122507;28;20794;-74
2022/12/02 08:12:44;;;;;;;61.83;23.20;;;0.90;99.90;;;;;;4118535;28;20470;-76
2022/12/02 08:14:46;;;;;;;56.30;22.07;;;0.90;99.90;;;;;;4120980;28;20551;-75
2022/12/02 08:16:48;;;;;;;64.07;23.37;;;1.00;99.90;;;;;;4120681;28;20454;-77
2022/12/02 08:18:50;;;;;;;58.50;21.37;;;1.00;99.90;;;;;;4121167;28;20876;-79
2022/12/02 08:20:52;;;;;;;64.03;23.00;;;1.00;99.90;;;;;;4104864;28;20631;-73
2022/12/02 08:22:54;;;;;;;61.33;21.53;;;1.10;99.90;;;;;;4118384;28;20471;-76
2022/12/02 08:24:57;;;;;;;61.90;22.97;;;1.00;99.90;;;;;;4104062;28;20480;-76
2022/12/02 08:26:59;;;;;;;56.77;21.70;;;1.00;99.90;;;;;;4103364;28;20488;-77
2022/12/02 08:29:05;;;;;;;64.53;24.07;;;1.00;99.90;;;;;;4107065;28;20490;-78
2022/12/02 08:31:06;;;;;;;61.90;23.07;;;1.00;99.90;;;;;;4119413;28;20880;-75
2022/12/02 08:33:09;;;;;;;58.33;22.23;;;1.10;99.90;;;;;;4120976;28;20459;-77
2022/12/02 08:35:11;;;;;;;61.73;22.10;;;1.10;99.90;;;;;;4118591;28;20559;-77
2022/12/02 08:37:14;;;;;;;56.67;21.17;;;1.10;99.90;;;;;;4124959;28;20459;-77
2022/12/02 08:39:16;;;;;;;57.93;21.73;;;1.10;99.90;;;;;;4124364;28;20525;-74
2022/12/02 08:41:19;;;;;;;66.83;23.57;;;1.00;99.90;;;;;;4105781;28;20515;-78
2022/12/02 08:43:21;;;;;;;58.77;22.03;;;1.00;99.90;;;;;;4125235;28;20481;-75
2022/12/02 08:45:23;;;;;;;55.43;21.53;;;1.00;99.90;;;;;;4127982;28;20478;-75
2022/12/02 08:47:25;;;;;;;56.90;20.40;;;1.00;99.90;;;;;;4122814;28;20518;-75
2022/12/02 08:49:29;;;;;;;61.60;23.43;;;1.00;99.90;;;;;;4118596;28;20548;-76
2022/12/02 08:51:31;;;;;;;60.63;22.63;;;1.00;99.90;;;;;;4119754;28;21032;-76
2022/12/02 08:53:33;;;;;;;59.17;21.60;;;1.00;99.90;;;;;;4119674;28;20526;-76
2022/12/02 08:55:35;;;;;;;56.07;21.17;;;1.00;99.90;;;;;;4117163;28;20558;-75
2022/12/02 08:57:38;;;;;;;57.37;21.87;;;1.00;99.90;;;;;;4120622;28;20506;-76
2022/12/02 08:59:40;;;;;;;58.07;22.30;;;1.00;99.90;;;;;;4120858;28;20491;-75
2022/12/02 09:01:42;;;;;;;59.77;20.50;;;1.00;99.90;;;;;;4107275;28;20479;-75
2022/12/02 09:03:44;;;;;;;52.97;20.70;;;1.00;99.90;;;;;;4120248;28;20841;-76
2022/12/02 09:05:46;;;;;;;52.20;20.03;;;1.00;99.90;;;;;;4119044;28;20473;-75
2022/12/02 09:07:48;;;;;;;55.67;19.60;;;1.00;99.90;;;;;;4122313;28;20493;-76
2022/12/02 09:09:50;;;;;;;52.07;20.27;;;1.00;99.90;;;;;;4121919;28;20463;-75
2022/12/02 09:11:52;;;;;;;55.00;21.47;;;1.00;99.90;;;;;;4121474;28;20485;-77
2022/12/02 09:13:56;;;;;;;57.47;22.20;;;1.00;99.90;;;;;;4123330;28;21010;-76
2022/12/02 09:15:58;;;;;;;53.70;20.70;;;1.00;99.90;;;;;;4117402;28;20475;-75
2022/12/02 09:18:00;;;;;;;56.87;21.50;;;1.00;99.90;;;;;;4122274;28;20464;-78
2022/12/02 09:20:03;;;;;;;51.60;19.43;;;1.20;99.90;;;;;;4119330;28;20463;-78
2022/12/02 09:22:05;;;;;;;58.97;21.67;;;1.00;99.90;;;;;;4120974;28;20467;-75
2022/12/02 09:24:10;;;;;;;57.00;20.80;;;1.00;99.90;;;;;;4120259;28;20511;-74
2022/12/02 09:26:12;;;;;;;55.73;21.53;;;1.00;99.90;;;;;;4107329;28;21224;-74
2022/12/02 09:28:13;;;;;;;53.30;21.00;;;1.00;99.90;;;;;;4109683;28;20940;-73
2022/12/02 09:30:17;;;;;;;54.97;21.23;;;1.00;99.90;;;;;;4127085;28;20517;-73
2022/12/02 09:32:19;;;;;;;56.73;22.03;;;1.00;99.90;;;;;;4110339;28;20474;-74
2022/12/02 09:34:21;;;;;;;56.27;21.77;;;1.00;99.90;;;;;;4129645;28;20469;-76
2022/12/02 09:36:23;;;;;;;56.73;20.30;;;0.90;99.90;;;;;;4116517;28;20982;-77
2022/12/02 09:38:30;;;;;;;53.10;19.43;;;1.00;99.90;;;;;;4131328;28;20541;-75
2022/12/02 09:40:32;;;;;;;49.50;19.57;;;1.00;99.90;;;;;;4123096;28;20447;-74
2022/12/02 09:42:34;;;;;;;52.00;20.13;;;1.00;99.90;;;;;;4124006;28;21238;-74
2022/12/02 09:44:38;;;;;;;54.37;20.17;;;1.00;99.90;;;;;;4127374;28;20868;-74
2022/12/02 09:46:41;;;;;;;54.27;19.47;;;1.00;99.90;;;;;;4125503;28;20445;-77
2022/12/02 09:48:43;;;;;;;54.70;20.00;;;1.00;99.90;;;;;;4121979;28;20457;-76
2022/12/02 09:50:45;;;;;;;59.13;19.60;;;1.00;99.90;;;;;;4122614;28;20458;-76
2022/12/02 09:52:49;;;;;;;51.43;19.90;;;1.00;99.90;;;;;;4103718;28;21242;-77
2022/12/02 09:54:52;;;;;;;64.07;21.73;;;1.10;99.90;;;;;;4122872;28;20487;-78
2022/12/02 09:56:54;;;;;;;52.40;20.83;;;1.10;99.90;;;;;;4111039;28;20443;-74
2022/12/02 09:58:57;;;;;;;53.87;19.83;;;1.00;99.90;;;;;;4124042;28;20462;-74
2022/12/02 10:01:01;;;;;;;53.60;20.77;;;1.10;99.90;;;;;;4126446;28;20454;-74
2022/12/02 10:03:07;;;;;;;51.10;19.97;;;1.00;99.90;;;;;;4123367;28;21250;-75
2022/12/02 10:05:15;;;;;;;55.27;20.00;;;1.10;99.90;;;;;;4124796;28;20500;-74
2022/12/02 10:07:17;;;;;;;51.43;19.07;;;1.10;99.90;;;;;;4109043;28;20846;-74
2022/12/02 10:09:26;;;;;;;54.53;20.00;;;1.10;99.90;;;;;;4124161;28;20468;-76
2022/12/02 10:11:32;;;;;;;53.07;20.40;;;1.10;99.90;;;;;;4121784;28;20564;-78
2022/12/02 10:13:39;;;;;;;50.97;18.77;;;1.10;99.90;;;;;;4124970;28;20471;-76
2022/12/02 10:15:42;;;;;;;49.70;19.53;;;1.10;99.90;;;;;;4110711;28;20463;-75
2022/12/02 10:17:47;;;;;;;53.70;20.37;;;1.10;99.90;;;;;;4105834;28;20855;-75
2022/12/02 10:19:52;;;;;;;51.57;20.83;;;1.10;99.90;;;;;;4125060;28;20458;-75
2022/12/02 10:21:54;;;;;;;53.83;20.37;;;1.10;99.90;;;;;;4124129;28;21469;-74
2022/12/02 10:23:58;;;;;;;51.83;19.93;;;1.10;99.90;;;;;;4122408;28;20476;-76
2022/12/02 10:26:12;;;;;;;44.60;18.13;;;1.10;99.90;;;;;;4101983;28;20450;-75
2022/12/02 10:28:26;;;;;;;49.07;18.73;;;1.30;99.90;;;;;;4110024;28;21126;-76
2022/12/02 10:30:29;;;;;;;50.47;19.53;;;1.10;99.90;;;;;;4130314;28;20461;-73
2022/12/02 10:32:31;;;;;;;54.63;20.33;;;1.10;99.90;;;;;;4111166;28;20484;-77
2022/12/02 10:34:35;;;;;;;47.20;19.67;;;1.10;99.90;;;;;;4130372;28;20547;-78